Time;durP1;ratioP1;P1;durP2;ratioP2;P2;SDS_P1;SDS_P2;PMS_P1;PMS_P2;Temp;Humidity;BMP_temperature;BMP_pressure;BME280_temperature;BME280_humidity;BME280_pressure;Samples;Min_cycle;Max_cycle;Signal;HPM_P1;HPM_P2
2021/12/24 00:00:18;;;;;;;74.63;38.60;;;-1.10;99.90;;;;;;10518718;28;20192;-78
2021/12/24 00:05:41;;;;;;;74.20;38.60;;;-1.10;99.90;;;;;;10519096;28;20593;-78
2021/12/24 00:11:04;;;;;;;72.33;36.33;;;-1.10;99.90;;;;;;10519158;28;20197;-78
2021/12/24 00:16:36;;;;;;;75.23;38.73;;;-1.10;99.90;;;;;;10503928;28;20197;-77
2021/12/24 00:39:00;;;;;;;74.37;38.23;;;-1.10;99.90;;;;;;10490346;28;20193;-78
2021/12/24 00:44:23;;;;;;;65.87;35.97;;;-1.10;99.90;;;;;;10514252;28;20210;-77
2021/12/24 00:49:45;;;;;;;62.67;34.23;;;-1.00;99.90;;;;;;10493395;28;20240;-77
2021/12/24 00:55:09;;;;;;;73.10;38.00;;;-1.10;99.90;;;;;;10505727;28;20428;-78
2021/12/24 01:00:36;;;;;;;76.67;39.40;;;-1.00;99.90;;;;;;10498008;28;20482;-78
2021/12/24 01:05:59;;;;;;;72.70;40.37;;;-1.00;99.90;;;;;;10456045;28;20249;-78
2021/12/24 01:11:21;;;;;;;88.97;42.67;;;-1.00;99.90;;;;;;10469882;28;20420;-78
2021/12/24 01:16:52;;;;;;;82.23;41.00;;;-1.00;99.90;;;;;;10501058;28;20288;-78
2021/12/24 01:39:09;;;;;;;78.17;39.47;;;-1.00;99.90;;;;;;10511483;28;20183;-79
2021/12/24 01:44:31;;;;;;;69.37;36.47;;;-0.90;99.90;;;;;;10500852;28;20247;-77
2021/12/24 01:49:59;;;;;;;63.57;35.27;;;-0.90;99.90;;;;;;10482169;28;20276;-78
2021/12/24 01:55:23;;;;;;;67.57;36.70;;;-0.90;99.90;;;;;;10482438;28;20223;-78
2021/12/24 02:00:50;;;;;;;64.80;36.60;;;-0.90;99.90;;;;;;10522980;28;20250;-78
2021/12/24 02:06:12;;;;;;;66.50;37.77;;;-0.80;99.90;;;;;;10527831;28;20429;-78
2021/12/24 02:11:37;;;;;;;68.60;36.27;;;-0.70;99.90;;;;;;10508851;28;20271;-77
2021/12/24 02:28:21;;;;;;;71.83;37.00;;;-0.80;99.90;;;;;;10536615;28;20251;-78
2021/12/24 02:33:44;;;;;;;71.70;37.80;;;-0.70;99.90;;;;;;10541302;28;20225;-77
2021/12/24 02:39:06;;;;;;;67.03;36.87;;;-0.70;99.90;;;;;;10494848;28;20248;-77
2021/12/24 02:44:28;;;;;;;69.43;36.43;;;-0.80;99.90;;;;;;10519702;28;20282;-78
2021/12/24 02:55:15;;;;;;;67.23;35.33;;;-0.80;99.90;;;;;;10549160;28;20219;-78
2021/12/24 03:00:38;;;;;;;73.70;36.90;;;-0.80;99.90;;;;;;10479712;28;20205;-78
2021/12/24 03:06:00;;;;;;;64.67;35.73;;;-0.70;99.90;;;;;;10464980;28;20246;-78
2021/12/24 03:11:24;;;;;;;71.20;38.53;;;-0.80;99.90;;;;;;10481560;28;20206;-78
2021/12/24 03:16:56;;;;;;;68.03;37.53;;;-0.80;99.90;;;;;;10503069;28;20197;-78
2021/12/24 03:27:58;;;;;;;73.07;37.60;;;-0.80;99.90;;;;;;10505569;28;20413;-78
2021/12/24 03:33:20;;;;;;;76.53;36.70;;;-0.70;99.90;;;;;;10519631;28;20218;-77
2021/12/24 03:38:43;;;;;;;74.23;36.57;;;-0.70;99.90;;;;;;10492637;28;20194;-78
2021/12/24 03:44:08;;;;;;;77.43;36.67;;;-0.70;99.90;;;;;;10485545;28;20205;-76
2021/12/24 03:49:40;;;;;;;68.90;36.53;;;-0.80;99.90;;;;;;10517425;28;20206;-77
2021/12/24 03:55:04;;;;;;;70.00;36.23;;;-0.80;99.90;;;;;;10518547;28;20547;-78
2021/12/24 04:00:31;;;;;;;61.83;33.80;;;-0.70;99.90;;;;;;10477892;28;20186;-78
2021/12/24 04:06:25;;;;;;;69.57;35.40;;;-0.70;99.90;;;;;;10477899;28;20303;-78
2021/12/24 04:12:06;;;;;;;65.83;35.53;;;-0.80;99.90;;;;;;10476894;28;20254;-78
2021/12/24 04:17:32;;;;;;;67.50;35.70;;;-0.70;99.90;;;;;;10520849;28;20204;-78
2021/12/24 04:28:34;;;;;;;71.20;34.87;;;-0.70;99.90;;;;;;10517700;28;20199;-77
2021/12/24 04:34:00;;;;;;;82.00;38.50;;;-0.70;99.90;;;;;;10517722;28;20226;-77
2021/12/24 04:51:20;;;;;;;77.60;38.30;;;-0.70;99.90;;;;;;10376169;28;20273;-78
2021/12/24 05:08:29;;;;;;;77.43;36.40;;;-0.60;99.90;;;;;;10373223;28;20289;-77
2021/12/24 05:13:54;;;;;;;83.13;39.23;;;-0.60;99.90;;;;;;10377441;28;20234;-78
2021/12/24 05:25:27;;;;;;;85.67;39.87;;;-0.70;99.90;;;;;;10380377;28;20235;-77
2021/12/24 05:30:50;;;;;;;85.13;40.60;;;-0.80;99.90;;;;;;10436712;28;20196;-78
2021/12/24 05:36:12;;;;;;;80.80;38.30;;;-0.90;99.90;;;;;;10452050;28;20226;-77
2021/12/24 05:41:34;;;;;;;79.07;38.50;;;-0.90;99.90;;;;;;10461584;28;20215;-77
2021/12/24 05:46:56;;;;;;;85.80;38.77;;;-0.80;99.90;;;;;;10496289;28;20193;-78
2021/12/24 05:52:40;;;;;;;80.03;35.97;;;-0.80;99.90;;;;;;10478803;28;20221;-78
2021/12/24 05:58:12;;;;;;;91.10;40.40;;;-0.80;99.90;;;;;;10455609;28;20207;-77
2021/12/24 06:03:34;;;;;;;82.60;38.90;;;-0.70;99.90;;;;;;10468205;28;20198;-79
2021/12/24 06:08:56;;;;;;;80.17;39.60;;;-0.70;99.90;;;;;;10508719;28;20272;-77
2021/12/24 06:14:18;;;;;;;85.33;39.40;;;-0.70;99.90;;;;;;10495462;28;20226;-77
2021/12/24 06:19:42;;;;;;;82.53;39.67;;;-0.70;99.90;;;;;;10522436;28;20236;-78
2021/12/24 06:25:05;;;;;;;75.07;37.97;;;-0.60;99.90;;;;;;10522414;28;20580;-78
2021/12/24 06:30:29;;;;;;;75.10;36.47;;;-0.60;99.90;;;;;;10508684;28;20203;-78
2021/12/24 06:35:57;;;;;;;86.83;41.43;;;-0.60;99.90;;;;;;10522617;28;20301;-78
2021/12/24 06:41:19;;;;;;;85.03;41.87;;;-0.50;99.90;;;;;;10522768;28;20210;-78
2021/12/24 06:46:42;;;;;;;77.63;38.77;;;-0.50;99.90;;;;;;10507302;28;20508;-78
2021/12/24 06:52:05;;;;;;;80.00;39.30;;;-0.50;99.90;;;;;;10497605;28;20242;-78
2021/12/24 06:57:27;;;;;;;73.00;37.57;;;-0.40;99.90;;;;;;10524217;28;20539;-78
2021/12/24 07:02:52;;;;;;;79.03;35.87;;;-0.40;99.90;;;;;;10534835;28;20201;-78
2021/12/24 07:08:15;;;;;;;75.67;36.70;;;-0.40;99.90;;;;;;10520514;28;20240;-78
2021/12/24 07:13:37;;;;;;;72.07;35.13;;;-0.40;99.90;;;;;;10520845;28;20215;-78
2021/12/24 07:18:59;;;;;;;75.33;35.57;;;-0.50;99.90;;;;;;10505987;28;20428;-78
2021/12/24 07:24:21;;;;;;;74.57;35.60;;;-0.40;99.90;;;;;;10505851;28;20490;-78
2021/12/24 07:29:43;;;;;;;79.77;37.63;;;-0.40;99.90;;;;;;10519893;28;20457;-78
2021/12/24 07:35:09;;;;;;;81.43;35.73;;;-0.30;99.90;;;;;;10519856;28;20527;-78
2021/12/24 07:40:31;;;;;;;76.70;37.27;;;-0.30;99.90;;;;;;10536341;28;20204;-78
2021/12/24 07:45:55;;;;;;;75.57;34.13;;;-0.30;99.90;;;;;;10518724;28;20263;-78
2021/12/24 07:57:00;;;;;;;76.43;37.17;;;-0.30;99.90;;;;;;10519123;28;20256;-78
2021/12/24 08:02:28;;;;;;;95.27;45.63;;;-0.30;99.90;;;;;;10519270;28;20366;-78
2021/12/24 08:07:51;;;;;;;93.33;44.17;;;-0.20;99.90;;;;;;10532111;28;20226;-78
2021/12/24 08:13:13;;;;;;;78.67;36.07;;;-0.20;99.90;;;;;;10518470;28;20220;-77
2021/12/24 08:18:37;;;;;;;70.33;33.77;;;-0.10;99.90;;;;;;10534055;28;20191;-78
2021/12/24 08:23:58;;;;;;;67.47;32.97;;;-0.10;99.90;;;;;;10523541;28;20200;-77
2021/12/24 08:29:22;;;;;;;62.70;30.57;;;0.00;99.90;;;;;;10518068;28;20258;-78
2021/12/24 08:34:44;;;;;;;66.00;32.67;;;0.00;99.90;;;;;;10518858;28;20221;-77
2021/12/24 08:40:08;;;;;;;60.07;30.57;;;0.00;99.90;;;;;;10531428;28;20486;-78
2021/12/24 08:45:30;;;;;;;60.93;28.53;;;0.10;99.90;;;;;;10483534;28;20191;-78
2021/12/24 08:50:52;;;;;;;51.83;28.37;;;0.10;99.90;;;;;;10517449;28;20195;-78
2021/12/24 08:56:14;;;;;;;55.73;28.53;;;0.20;99.90;;;;;;10490451;28;20245;-77
2021/12/24 09:01:36;;;;;;;49.40;26.17;;;0.20;99.90;;;;;;10517597;28;20422;-77
2021/12/24 09:06:59;;;;;;;52.50;30.30;;;0.30;99.90;;;;;;10517349;28;20237;-78
2021/12/24 09:12:21;;;;;;;49.03;27.40;;;0.30;99.90;;;;;;10520329;28;20198;-78
2021/12/24 09:17:46;;;;;;;48.67;25.20;;;0.40;99.90;;;;;;10507925;28;20194;-78
2021/12/24 09:23:10;;;;;;;41.97;23.13;;;0.50;99.90;;;;;;10510927;28;20199;-78
2021/12/24 09:28:32;;;;;;;40.03;23.40;;;0.50;99.90;;;;;;10524325;28;20534;-78
2021/12/24 09:33:54;;;;;;;39.70;21.63;;;0.60;99.90;;;;;;10525001;28;20223;-78
2021/12/24 09:39:16;;;;;;;40.73;21.60;;;0.60;99.90;;;;;;10468948;28;20198;-78
2021/12/24 09:44:39;;;;;;;39.27;21.70;;;0.60;99.90;;;;;;10541092;28;20226;-78
2021/12/24 09:50:01;;;;;;;47.27;23.57;;;0.70;99.90;;;;;;10542763;28;20287;-78
2021/12/24 09:55:26;;;;;;;68.23;31.93;;;0.60;99.90;;;;;;10566589;28;20279;-78
2021/12/24 10:00:48;;;;;;;40.27;21.83;;;0.70;99.90;;;;;;10482616;28;20222;-78
2021/12/24 10:06:10;;;;;;;37.47;20.60;;;0.80;99.90;;;;;;10467201;28;20243;-78
2021/12/24 10:11:51;;;;;;;37.13;20.43;;;0.80;99.90;;;;;;10510173;28;20191;-77
2021/12/24 10:17:19;;;;;;;37.20;20.10;;;0.90;99.90;;;;;;10518991;28;20349;-79
2021/12/24 10:22:50;;;;;;;42.70;20.33;;;0.80;99.90;;;;;;10494297;28;20194;-77
2021/12/24 10:28:12;;;;;;;33.83;18.63;;;0.90;99.90;;;;;;10521318;28;20226;-78
2021/12/24 10:33:34;;;;;;;40.63;20.87;;;1.00;99.90;;;;;;10522399;28;20207;-78
2021/12/24 10:38:56;;;;;;;40.33;21.63;;;1.00;99.90;;;;;;10521510;28;20257;-78
2021/12/24 10:44:28;;;;;;;40.03;21.97;;;1.00;99.90;;;;;;10479458;28;20200;-80
2021/12/24 10:55:45;;;;;;;43.00;21.83;;;1.10;99.90;;;;;;10536056;28;20229;-78
2021/12/24 11:01:16;;;;;;;41.00;20.80;;;1.00;99.90;;;;;;10507014;28;20199;-78
2021/12/24 11:06:37;;;;;;;42.27;20.07;;;1.00;99.90;;;;;;10518146;28;20543;-76
2021/12/24 11:12:00;;;;;;;39.20;20.27;;;1.00;99.90;;;;;;10519650;28;20190;-78
2021/12/24 11:17:40;;;;;;;40.97;21.87;;;0.90;99.90;;;;;;10520438;28;20297;-77
2021/12/24 11:23:11;;;;;;;48.53;23.17;;;1.10;99.90;;;;;;10533746;28;20248;-78
2021/12/24 11:28:34;;;;;;;35.53;19.67;;;1.10;99.90;;;;;;10489313;28;20203;-78
2021/12/24 11:33:58;;;;;;;36.40;19.60;;;1.00;99.90;;;;;;10505191;28;20249;-79
2021/12/24 11:39:20;;;;;;;38.93;21.77;;;1.00;99.90;;;;;;10519732;28;20265;-77
2021/12/24 11:44:43;;;;;;;62.90;24.10;;;1.00;99.90;;;;;;10517210;28;20210;-76
2021/12/24 11:50:06;;;;;;;37.47;19.07;;;1.00;99.90;;;;;;10505546;28;20221;-75
2021/12/24 11:55:37;;;;;;;81.57;26.03;;;1.10;99.90;;;;;;10509594;28;20532;-76
2021/12/24 12:01:05;;;;;;;37.03;20.33;;;1.20;99.90;;;;;;10523146;28;20253;-76
2021/12/24 12:06:27;;;;;;;46.20;21.80;;;1.10;99.90;;;;;;10476600;28;20444;-76
2021/12/24 12:11:58;;;;;;;38.93;20.60;;;1.10;99.90;;;;;;10490621;28;20196;-79
2021/12/24 12:17:24;;;;;;;37.20;19.30;;;1.20;99.90;;;;;;10518022;28;20476;-76
2021/12/24 12:22:55;;;;;;;36.33;18.07;;;1.20;99.90;;;;;;10497278;28;20201;-79
2021/12/24 12:28:17;;;;;;;34.13;19.10;;;1.20;99.90;;;;;;10488032;28;20262;-78
2021/12/24 12:33:41;;;;;;;32.20;18.73;;;1.30;99.90;;;;;;10518546;28;20211;-79
2021/12/24 12:39:26;;;;;;;38.53;20.40;;;1.40;99.90;;;;;;10518701;28;20195;-77
2021/12/24 12:44:54;;;;;;;49.63;20.50;;;1.40;99.90;;;;;;10512045;28;20504;-78
2021/12/24 12:50:17;;;;;;;37.50;18.70;;;1.40;99.90;;;;;;10520694;28;20207;-78
2021/12/24 12:55:40;;;;;;;28.37;15.40;;;1.70;99.90;;;;;;10522086;28;20409;-76
2021/12/24 13:01:13;;;;;;;27.77;15.37;;;1.60;99.90;;;;;;10524907;28;20229;-76
2021/12/24 13:06:36;;;;;;;23.47;14.30;;;1.50;99.90;;;;;;10525311;28;20296;-78
2021/12/24 13:11:57;;;;;;;25.97;14.73;;;1.40;99.90;;;;;;10527342;28;20188;-76
2021/12/24 13:17:21;;;;;;;23.70;14.23;;;1.30;99.90;;;;;;10527447;28;20215;-77
2021/12/24 13:22:43;;;;;;;21.43;13.87;;;1.30;99.90;;;;;;10539872;28;20206;-76
2021/12/24 13:28:05;;;;;;;24.27;15.10;;;1.30;99.90;;;;;;10526822;28;20191;-76
2021/12/24 13:33:27;;;;;;;20.53;11.80;;;1.30;99.90;;;;;;10525189;28;20284;-76
2021/12/24 13:38:49;;;;;;;23.27;13.93;;;1.30;99.90;;;;;;10524615;28;20210;-77
2021/12/24 13:44:27;;;;;;;25.40;13.73;;;1.30;99.90;;;;;;10538106;28;20502;-76
2021/12/24 13:55:42;;;;;;;26.53;14.30;;;1.20;99.90;;;;;;10498387;28;20226;-77
2021/12/24 14:01:04;;;;;;;20.00;12.37;;;1.30;99.90;;;;;;10510503;28;20290;-76
2021/12/24 14:06:33;;;;;;;19.83;11.77;;;1.30;99.90;;;;;;10523817;28;20222;-75
2021/12/24 14:11:55;;;;;;;20.93;12.70;;;1.30;99.90;;;;;;10523156;28;20200;-76
2021/12/24 14:22:45;;;;;;;25.60;14.17;;;1.40;99.90;;;;;;10524570;28;20233;-76
2021/12/24 14:28:14;;;;;;;20.63;12.93;;;1.40;99.90;;;;;;10523228;28;20199;-78
2021/12/24 14:33:36;;;;;;;20.80;12.43;;;1.40;99.90;;;;;;10536877;28;20257;-78
2021/12/24 14:39:15;;;;;;;36.63;16.40;;;1.40;99.90;;;;;;10537119;28;20201;-80
2021/12/24 14:44:37;;;;;;;27.53;13.50;;;1.30;99.90;;;;;;10530909;28;20202;-78
2021/12/24 14:50:02;;;;;;;32.73;15.10;;;1.20;99.90;;;;;;10523279;28;20262;-77
2021/12/24 14:55:24;;;;;;;31.77;14.57;;;1.20;99.90;;;;;;10522102;28;20234;-77
2021/12/24 15:00:47;;;;;;;33.70;14.27;;;1.10;99.90;;;;;;10480648;28;20198;-76
2021/12/24 15:06:24;;;;;;;23.20;10.33;;;1.10;99.90;;;;;;10481588;28;20231;-76
2021/12/24 15:11:47;;;;;;;22.90;11.00;;;1.10;99.90;;;;;;10488891;28;20254;-76
2021/12/24 15:17:09;;;;;;;17.00;7.63;;;1.00;99.90;;;;;;10521748;28;20214;-76
2021/12/24 15:22:31;;;;;;;19.80;9.63;;;1.10;99.90;;;;;;10507034;28;20195;-76
2021/12/24 15:27:55;;;;;;;17.17;8.13;;;1.10;99.90;;;;;;10521776;28;20187;-77
2021/12/24 15:33:19;;;;;;;35.93;16.87;;;1.10;99.90;;;;;;10520477;28;20561;-76
2021/12/24 15:38:41;;;;;;;19.43;10.83;;;1.00;99.90;;;;;;10520547;28;20202;-79
2021/12/24 15:44:07;;;;;;;21.00;8.67;;;0.90;99.90;;;;;;10520111;28;20386;-75
2021/12/24 15:49:29;;;;;;;32.40;12.43;;;0.70;99.90;;;;;;10521662;28;20202;-78
2021/12/24 15:54:51;;;;;;;19.50;8.07;;;0.60;99.90;;;;;;10505230;28;20237;-76
2021/12/24 16:00:14;;;;;;;25.93;10.57;;;0.40;99.90;;;;;;10520300;28;20194;-80
2021/12/24 16:05:36;;;;;;;20.80;8.37;;;0.20;99.90;;;;;;10519576;28;20233;-75
2021/12/24 16:10:59;;;;;;;16.53;5.23;;;0.00;99.90;;;;;;10519260;28;20189;-76
2021/12/24 16:16:24;;;;;;;11.67;4.90;;;-0.40;99.90;;;;;;10520400;28;20224;-76
2021/12/24 16:21:46;;;;;;;24.67;8.07;;;-0.70;99.90;;;;;;10505621;28;20205;-76
2021/12/24 16:27:10;;;;;;;23.70;7.87;;;-0.80;99.90;;;;;;10519899;28;20191;-75
2021/12/24 16:32:33;;;;;;;27.67;10.10;;;-0.90;99.90;;;;;;10492037;28;20204;-76
2021/12/24 16:37:57;;;;;;;30.37;10.50;;;-0.90;99.90;;;;;;10477274;28;20221;-78
2021/12/24 16:43:18;;;;;;;42.53;12.23;;;-0.90;99.90;;;;;;10502707;28;20207;-79
2021/12/24 16:48:40;;;;;;;42.00;16.37;;;-0.90;99.90;;;;;;10518374;28;20203;-76
2021/12/24 16:54:02;;;;;;;21.57;11.30;;;-0.70;99.90;;;;;;10532394;28;20212;-76
2021/12/24 16:59:25;;;;;;;19.23;8.93;;;-0.70;99.90;;;;;;10533931;28;20195;-76
2021/12/24 17:04:47;;;;;;;10.17;5.50;;;-0.70;99.90;;;;;;10545897;28;20232;-75
2021/12/24 17:10:09;;;;;;;14.13;6.10;;;-0.80;99.90;;;;;;10545904;28;20241;-79
2021/12/24 17:15:32;;;;;;;9.73;4.27;;;-0.80;99.90;;;;;;10559747;28;20227;-77
2021/12/24 17:20:55;;;;;;;7.40;3.80;;;-1.00;99.90;;;;;;10559258;28;20493;-76
2021/12/24 17:26:18;;;;;;;14.17;6.13;;;-1.20;99.90;;;;;;10545162;28;20221;-77
2021/12/24 17:31:40;;;;;;;7.90;3.77;;;-1.30;99.90;;;;;;10525189;28;20512;-76
2021/12/24 17:37:04;;;;;;;5.33;2.83;;;-1.30;99.90;;;;;;10519403;28;20231;-76
2021/12/24 17:42:25;;;;;;;13.20;6.17;;;-1.30;99.90;;;;;;10545811;28;20492;-76
2021/12/24 17:47:49;;;;;;;8.07;3.53;;;-1.30;99.90;;;;;;10566734;28;20203;-75
2021/12/24 17:53:12;;;;;;;10.63;3.90;;;-1.30;99.90;;;;;;10552619;28;20205;-76
2021/12/24 17:58:35;;;;;;;8.27;4.53;;;-1.50;99.90;;;;;;10540120;28;20408;-75
2021/12/24 18:03:57;;;;;;;10.97;3.80;;;-1.60;99.90;;;;;;10468916;28;20229;-76
2021/12/24 18:09:20;;;;;;;4.53;2.07;;;-1.70;99.90;;;;;;10483514;28;20506;-75
2021/12/24 18:14:41;;;;;;;4.17;2.23;;;-1.90;99.90;;;;;;10483251;28;20234;-79
2021/12/24 18:20:06;;;;;;;7.10;3.73;;;-1.80;99.90;;;;;;10481958;28;20205;-76
2021/12/24 18:25:28;;;;;;;7.97;3.47;;;-1.90;99.90;;;;;;10468016;28;20205;-76
2021/12/24 18:30:50;;;;;;;8.00;3.57;;;-1.90;99.90;;;;;;10510777;28;20435;-76
2021/12/24 18:36:12;;;;;;;8.60;3.40;;;-1.80;99.90;;;;;;10524117;28;20217;-77
2021/12/24 18:41:34;;;;;;;6.53;2.80;;;-1.70;99.90;;;;;;10518066;28;20280;-76
2021/12/24 18:46:57;;;;;;;10.20;3.13;;;-1.70;99.90;;;;;;10522640;28;20201;-79
2021/12/24 18:52:20;;;;;;;18.47;4.47;;;-1.80;99.90;;;;;;10522914;28;20197;-75
2021/12/24 18:57:42;;;;;;;11.87;3.47;;;-1.90;99.90;;;;;;10521598;28;20464;-76
2021/12/24 19:03:06;;;;;;;22.50;6.80;;;-2.00;99.90;;;;;;10521885;28;20284;-78
2021/12/24 19:08:28;;;;;;;16.70;4.37;;;-2.00;99.90;;;;;;10522454;28;20187;-76
2021/12/24 19:13:50;;;;;;;8.80;2.67;;;-2.10;99.90;;;;;;10522280;28;20507;-76
2021/12/24 19:19:13;;;;;;;4.37;2.23;;;-2.20;99.90;;;;;;10522084;28;20204;-77
2021/12/24 19:24:35;;;;;;;10.73;2.70;;;-2.30;99.90;;;;;;10521720;28;20191;-75
2021/12/24 19:29:57;;;;;;;2.67;1.50;;;-2.30;99.90;;;;;;10521556;28;20193;-76
2021/12/24 19:35:19;;;;;;;3.10;1.67;;;-2.50;99.90;;;;;;10520520;28;20395;-76
2021/12/24 19:40:41;;;;;;;5.87;2.23;;;-2.70;99.90;;;;;;10520867;28;20271;-76
2021/12/24 19:46:03;;;;;;;6.93;2.50;;;-3.00;99.90;;;;;;10520081;28;20208;-75
2021/12/24 19:51:25;;;;;;;10.97;3.37;;;-3.20;99.90;;;;;;10520781;28;20203;-76
2021/12/24 19:56:48;;;;;;;13.10;5.20;;;-3.30;99.90;;;;;;10518722;28;20241;-77
2021/12/24 20:02:11;;;;;;;14.83;6.50;;;-3.40;99.90;;;;;;10519781;28;20190;-77
2021/12/24 20:07:35;;;;;;;8.43;4.00;;;-3.50;99.90;;;;;;10519139;28;20230;-79
2021/12/24 20:12:57;;;;;;;11.70;5.37;;;-3.60;99.90;;;;;;10520434;28;20257;-80
2021/12/24 20:18:19;;;;;;;11.87;4.43;;;-3.60;99.90;;;;;;10519287;28;20222;-80
2021/12/24 20:23:41;;;;;;;19.17;7.80;;;-3.60;99.90;;;;;;10520760;28;20420;-77
2021/12/24 20:29:03;;;;;;;15.23;4.93;;;-3.60;99.90;;;;;;10519782;28;20218;-77
2021/12/24 20:34:25;;;;;;;14.83;5.93;;;-3.60;99.90;;;;;;10520107;28;20212;-78
2021/12/24 20:39:47;;;;;;;11.97;5.37;;;-3.50;99.90;;;;;;10532952;28;20197;-75
2021/12/24 20:45:12;;;;;;;20.87;7.80;;;-3.40;99.90;;;;;;10518764;28;20201;-75
2021/12/24 20:50:36;;;;;;;20.80;6.13;;;-3.40;99.90;;;;;;10532431;28;20244;-79
2021/12/24 20:55:59;;;;;;;45.53;13.67;;;-3.50;99.90;;;;;;10519302;28;20215;-78
2021/12/24 21:01:21;;;;;;;30.57;10.43;;;;;;;;;;10517900;28;20482;-78
2021/12/24 21:06:43;;;;;;;27.40;10.17;;;-3.80;99.90;;;;;;10518846;28;20313;-77
2021/12/24 21:12:06;;;;;;;17.30;8.47;;;-3.80;99.90;;;;;;10519777;28;20195;-79
2021/12/24 21:17:28;;;;;;;20.60;6.40;;;-3.90;99.90;;;;;;10525763;28;20226;-79
2021/12/24 21:22:51;;;;;;;10.03;4.90;;;-3.80;99.90;;;;;;10525544;28;20221;-76
2021/12/24 21:28:13;;;;;;;10.83;3.13;;;-3.80;99.90;;;;;;10530711;28;20256;-76
2021/12/24 21:33:35;;;;;;;6.53;2.80;;;-3.70;99.90;;;;;;10534218;28;20285;-77
2021/12/24 21:38:57;;;;;;;10.43;2.73;;;-3.60;99.90;;;;;;10537101;28;20240;-80
2021/12/24 21:44:19;;;;;;;8.13;3.40;;;-3.60;99.90;;;;;;10527634;28;20392;-77
2021/12/24 21:49:42;;;;;;;8.97;3.23;;;-3.50;99.90;;;;;;10543231;28;20237;-77
2021/12/24 21:55:06;;;;;;;12.53;4.33;;;-3.50;99.90;;;;;;10534280;28;20209;-78
2021/12/24 22:00:30;;;;;;;10.17;3.43;;;-3.50;99.90;;;;;;10539077;28;20189;-78
2021/12/24 22:11:31;;;;;;;4.93;2.57;;;-3.40;99.90;;;;;;10527607;28;20197;-78
2021/12/24 22:17:09;;;;;;;6.53;2.37;;;-3.50;99.90;;;;;;10533108;28;20242;-77
2021/12/24 22:22:31;;;;;;;8.37;2.90;;;-3.50;99.90;;;;;;10531570;28;20192;-78
2021/12/24 22:27:54;;;;;;;9.83;2.90;;;-3.50;99.90;;;;;;10536210;28;20187;-77
2021/12/24 22:33:17;;;;;;;8.90;3.70;;;-3.40;99.90;;;;;;10538081;28;20258;-75
2021/12/24 22:38:40;;;;;;;4.07;1.90;;;-3.40;99.90;;;;;;10531000;28;20229;-76
2021/12/24 22:44:04;;;;;;;10.53;3.03;;;-3.30;99.90;;;;;;10517710;28;20200;-77
2021/12/24 22:49:26;;;;;;;5.93;2.70;;;-3.30;99.90;;;;;;10531126;28;20202;-78
2021/12/24 22:54:50;;;;;;;13.47;4.93;;;-3.40;99.90;;;;;;10535550;28;20218;-79
2021/12/24 23:00:30;;;;;;;9.07;3.50;;;-3.40;99.90;;;;;;10522485;28;20225;-80
2021/12/24 23:05:55;;;;;;;6.00;2.20;;;-3.50;99.90;;;;;;10520953;28;20298;-78
2021/12/24 23:11:18;;;;;;;7.17;3.00;;;-3.50;99.90;;;;;;10533595;28;20228;-76
2021/12/24 23:16:44;;;;;;;8.17;2.40;;;-3.70;99.90;;;;;;10537038;28;20248;-78
2021/12/24 23:22:08;;;;;;;5.53;1.90;;;-3.80;99.90;;;;;;10523057;28;20190;-76
2021/12/24 23:27:30;;;;;;;5.57;2.37;;;-3.80;99.90;;;;;;10520982;28;20203;-75
2021/12/24 23:32:53;;;;;;;6.83;2.37;;;-3.90;99.90;;;;;;10521492;28;20191;-78
2021/12/24 23:38:16;;;;;;;7.57;2.50;;;-3.90;99.90;;;;;;10521502;28;20231;-78
2021/12/24 23:43:47;;;;;;;4.10;2.13;;;-4.10;99.90;;;;;;10520006;28;20201;-78
2021/12/24 23:49:09;;;;;;;5.13;2.03;;;-4.20;99.90;;;;;;10521182;28;20193;-76
2021/12/24 23:54:31;;;;;;;4.57;2.07;;;-4.30;99.90;;;;;;10524330;28;20189;-75
2021/12/24 23:59:53;;;;;;;4.20;1.43;;;-4.30;99.90;;;;;;10525675;28;20240;-77
